sensor_id;sensor_type;location;lat;lon;timestamp;P1;durP1;ratioP1;P2;durP2;ratioP2
71042;SDS011;58696;52.134;5.500;2024-02-16T00:01:07;3.42;;;2.08;;
71042;SDS011;58696;52.134;5.500;2024-02-16T00:03:34;5.13;;;2.38;;
71042;SDS011;58696;52.134;5.500;2024-02-16T00:06:04;4.05;;;2.38;;
71042;SDS011;58696;52.134;5.500;2024-02-16T00:08:30;4.10;;;2.45;;
71042;SDS011;58696;52.134;5.500;2024-02-16T00:10:57;5.45;;;2.38;;
71042;SDS011;58696;52.134;5.500;2024-02-16T00:13:26;6.25;;;2.72;;
71042;SDS011;58696;52.134;5.500;2024-02-16T00:15:53;5.25;;;2.58;;
71042;SDS011;58696;52.134;5.500;2024-02-16T00:18:25;4.50;;;2.40;;
71042;SDS011;58696;52.134;5.500;2024-02-16T00:20:52;3.38;;;2.00;;
71042;SDS011;58696;52.134;5.500;2024-02-16T00:23:19;5.85;;;2.33;;
71042;SDS011;58696;52.134;5.500;2024-02-16T00:25:48;3.70;;;2.40;;
71042;SDS011;58696;52.134;5.500;2024-02-16T00:28:17;2.75;;;1.73;;
71042;SDS011;58696;52.134;5.500;2024-02-16T00:30:46;8.40;;;2.20;;
71042;SDS011;58696;52.134;5.500;2024-02-16T00:33:15;5.50;;;2.55;;
71042;SDS011;58696;52.134;5.500;2024-02-16T00:35:46;5.30;;;2.63;;
71042;SDS011;58696;52.134;5.500;2024-02-16T00:38:15;6.95;;;2.22;;
71042;SDS011;58696;52.134;5.500;2024-02-16T00:40:44;5.75;;;2.15;;
71042;SDS011;58696;52.134;5.500;2024-02-16T00:43:11;2.25;;;2.00;;
71042;SDS011;58696;52.134;5.500;2024-02-16T00:45:37;2.65;;;2.25;;
71042;SDS011;58696;52.134;5.500;2024-02-16T00:48:10;3.83;;;2.20;;
71042;SDS011;58696;52.134;5.500;2024-02-16T00:50:37;3.92;;;2.42;;
71042;SDS011;58696;52.134;5.500;2024-02-16T00:53:04;3.80;;;2.00;;
71042;SDS011;58696;52.134;5.500;2024-02-16T00:55:33;3.55;;;2.10;;
71042;SDS011;58696;52.134;5.500;2024-02-16T00:58:03;5.90;;;1.92;;
71042;SDS011;58696;52.134;5.500;2024-02-16T01:00:32;3.67;;;2.20;;
71042;SDS011;58696;52.134;5.500;2024-02-16T01:02:59;3.92;;;2.30;;
71042;SDS011;58696;52.134;5.500;2024-02-16T01:05:28;2.55;;;2.05;;
71042;SDS011;58696;52.134;5.500;2024-02-16T01:07:55;4.22;;;2.08;;
71042;SDS011;58696;52.134;5.500;2024-02-16T01:10:21;5.88;;;2.25;;
71042;SDS011;58696;52.134;5.500;2024-02-16T01:12:50;6.30;;;2.50;;
71042;SDS011;58696;52.134;5.500;2024-02-16T01:15:18;5.53;;;2.20;;
71042;SDS011;58696;52.134;5.500;2024-02-16T01:17:45;6.05;;;2.45;;
71042;SDS011;58696;52.134;5.500;2024-02-16T01:20:13;3.03;;;1.95;;
71042;SDS011;58696;52.134;5.500;2024-02-16T01:22:39;10.95;;;2.20;;
71042;SDS011;58696;52.134;5.500;2024-02-16T01:25:09;4.20;;;2.22;;
71042;SDS011;58696;52.134;5.500;2024-02-16T01:27:35;2.83;;;2.25;;
71042;SDS011;58696;52.134;5.500;2024-02-16T01:30:02;4.03;;;2.53;;
71042;SDS011;58696;52.134;5.500;2024-02-16T01:32:30;4.75;;;2.70;;
71042;SDS011;58696;52.134;5.500;2024-02-16T01:34:57;5.00;;;2.58;;
71042;SDS011;58696;52.134;5.500;2024-02-16T01:37:24;6.32;;;2.45;;
71042;SDS011;58696;52.134;5.500;2024-02-16T01:39:51;7.60;;;2.63;;
71042;SDS011;58696;52.134;5.500;2024-02-16T01:42:20;4.03;;;2.30;;
71042;SDS011;58696;52.134;5.500;2024-02-16T01:44:46;3.95;;;2.28;;
71042;SDS011;58696;52.134;5.500;2024-02-16T01:47:13;5.57;;;2.20;;
71042;SDS011;58696;52.134;5.500;2024-02-16T01:49:41;4.55;;;2.40;;
71042;SDS011;58696;52.134;5.500;2024-02-16T01:52:11;5.88;;;2.83;;
71042;SDS011;58696;52.134;5.500;2024-02-16T01:54:38;4.93;;;2.40;;
71042;SDS011;58696;52.134;5.500;2024-02-16T01:57:05;4.35;;;2.20;;
71042;SDS011;58696;52.134;5.500;2024-02-16T01:59:33;3.88;;;2.22;;
71042;SDS011;58696;52.134;5.500;2024-02-16T02:01:59;4.65;;;2.20;;
71042;SDS011;58696;52.134;5.500;2024-02-16T02:04:31;3.35;;;2.25;;
71042;SDS011;58696;52.134;5.500;2024-02-16T02:06:57;3.00;;;2.50;;
71042;SDS011;58696;52.134;5.500;2024-02-16T02:09:24;5.05;;;2.40;;
71042;SDS011;58696;52.134;5.500;2024-02-16T02:11:53;5.20;;;2.55;;
71042;SDS011;58696;52.134;5.500;2024-02-16T02:14:25;5.05;;;2.50;;
71042;SDS011;58696;52.134;5.500;2024-02-16T02:16:56;4.40;;;2.00;;
71042;SDS011;58696;52.134;5.500;2024-02-16T02:19:27;5.18;;;2.40;;
71042;SDS011;58696;52.134;5.500;2024-02-16T02:21:58;5.57;;;1.95;;
71042;SDS011;58696;52.134;5.500;2024-02-16T02:24:27;5.82;;;2.33;;
71042;SDS011;58696;52.134;5.500;2024-02-16T02:26:56;3.00;;;2.17;;
71042;SDS011;58696;52.134;5.500;2024-02-16T02:29:26;4.20;;;2.42;;
71042;SDS011;58696;52.134;5.500;2024-02-16T02:31:52;4.00;;;2.15;;
71042;SDS011;58696;52.134;5.500;2024-02-16T02:34:21;3.55;;;2.50;;
71042;SDS011;58696;52.134;5.500;2024-02-16T02:36:50;3.70;;;2.20;;
71042;SDS011;58696;52.134;5.500;2024-02-16T02:39:17;5.25;;;2.30;;
71042;SDS011;58696;52.134;5.500;2024-02-16T02:41:43;5.13;;;2.90;;
71042;SDS011;58696;52.134;5.500;2024-02-16T02:44:10;3.40;;;2.28;;
71042;SDS011;58696;52.134;5.500;2024-02-16T02:46:37;5.95;;;2.67;;
71042;SDS011;58696;52.134;5.500;2024-02-16T02:49:03;5.60;;;2.50;;
71042;SDS011;58696;52.134;5.500;2024-02-16T02:51:30;8.95;;;2.00;;
71042;SDS011;58696;52.134;5.500;2024-02-16T02:53:59;5.32;;;2.42;;
71042;SDS011;58696;52.134;5.500;2024-02-16T02:56:26;2.97;;;1.88;;
71042;SDS011;58696;52.134;5.500;2024-02-16T02:58:52;8.27;;;2.05;;
71042;SDS011;58696;52.134;5.500;2024-02-16T03:01:22;3.25;;;2.35;;
71042;SDS011;58696;52.134;5.500;2024-02-16T03:03:49;3.45;;;2.22;;
71042;SDS011;58696;52.134;5.500;2024-02-16T03:06:19;4.25;;;2.28;;
71042;SDS011;58696;52.134;5.500;2024-02-16T03:08:49;3.53;;;2.03;;
71042;SDS011;58696;52.134;5.500;2024-02-16T03:11:16;3.70;;;2.30;;
71042;SDS011;58696;52.134;5.500;2024-02-16T03:13:45;3.55;;;2.40;;
71042;SDS011;58696;52.134;5.500;2024-02-16T03:16:14;3.42;;;2.38;;
71042;SDS011;58696;52.134;5.500;2024-02-16T03:18:43;3.15;;;2.30;;
71042;SDS011;58696;52.134;5.500;2024-02-16T03:21:12;5.53;;;2.58;;
71042;SDS011;58696;52.134;5.500;2024-02-16T03:23:42;4.53;;;2.45;;
71042;SDS011;58696;52.134;5.500;2024-02-16T03:26:19;3.83;;;2.20;;
71042;SDS011;58696;52.134;5.500;2024-02-16T03:28:48;4.20;;;2.22;;
71042;SDS011;58696;52.134;5.500;2024-02-16T03:31:18;3.37;;;2.27;;
71042;SDS011;58696;52.134;5.500;2024-02-16T03:33:49;3.30;;;2.50;;
71042;SDS011;58696;52.134;5.500;2024-02-16T03:36:19;3.00;;;2.10;;
71042;SDS011;58696;52.134;5.500;2024-02-16T03:38:47;4.03;;;2.45;;
71042;SDS011;58696;52.134;5.500;2024-02-16T03:41:19;4.50;;;2.53;;
71042;SDS011;58696;52.134;5.500;2024-02-16T03:43:50;2.65;;;2.40;;
71042;SDS011;58696;52.134;5.500;2024-02-16T03:46:20;4.43;;;2.47;;
71042;SDS011;58696;52.134;5.500;2024-02-16T03:48:46;4.53;;;2.75;;
71042;SDS011;58696;52.134;5.500;2024-02-16T03:51:13;6.28;;;2.50;;
71042;SDS011;58696;52.134;5.500;2024-02-16T03:53:42;3.55;;;2.33;;
71042;SDS011;58696;52.134;5.500;2024-02-16T03:56:17;6.20;;;2.55;;
71042;SDS011;58696;52.134;5.500;2024-02-16T03:58:44;3.53;;;2.13;;
71042;SDS011;58696;52.134;5.500;2024-02-16T04:01:11;6.78;;;2.83;;
71042;SDS011;58696;52.134;5.500;2024-02-16T04:03:37;4.55;;;2.65;;
71042;SDS011;58696;52.134;5.500;2024-02-16T04:06:04;5.97;;;2.22;;
71042;SDS011;58696;52.134;5.500;2024-02-16T04:08:33;3.78;;;2.47;;
71042;SDS011;58696;52.134;5.500;2024-02-16T04:11:02;6.55;;;2.63;;
71042;SDS011;58696;52.134;5.500;2024-02-16T04:13:29;3.78;;;2.58;;
71042;SDS011;58696;52.134;5.500;2024-02-16T04:15:56;5.15;;;2.30;;
71042;SDS011;58696;52.134;5.500;2024-02-16T04:18:25;6.30;;;3.10;;
71042;SDS011;58696;52.134;5.500;2024-02-16T04:20:55;5.85;;;2.30;;
71042;SDS011;58696;52.134;5.500;2024-02-16T04:23:24;6.65;;;2.47;;
71042;SDS011;58696;52.134;5.500;2024-02-16T04:25:52;3.30;;;2.20;;
71042;SDS011;58696;52.134;5.500;2024-02-16T04:28:22;4.97;;;2.20;;
71042;SDS011;58696;52.134;5.500;2024-02-16T04:30:53;8.43;;;2.78;;
71042;SDS011;58696;52.134;5.500;2024-02-16T04:33:20;3.17;;;2.45;;
71042;SDS011;58696;52.134;5.500;2024-02-16T04:35:51;4.68;;;2.38;;
71042;SDS011;58696;52.134;5.500;2024-02-16T04:38:18;6.70;;;2.38;;
71042;SDS011;58696;52.134;5.500;2024-02-16T04:40:45;3.85;;;2.55;;
71042;SDS011;58696;52.134;5.500;2024-02-16T04:43:14;3.38;;;2.38;;
71042;SDS011;58696;52.134;5.500;2024-02-16T04:45:44;3.75;;;2.13;;
71042;SDS011;58696;52.134;5.500;2024-02-16T04:48:10;5.43;;;2.75;;
71042;SDS011;58696;52.134;5.500;2024-02-16T04:50:37;3.05;;;2.17;;
71042;SDS011;58696;52.134;5.500;2024-02-16T04:53:06;6.72;;;2.20;;
71042;SDS011;58696;52.134;5.500;2024-02-16T04:55:32;3.83;;;2.13;;
71042;SDS011;58696;52.134;5.500;2024-02-16T04:58:00;5.20;;;2.33;;
71042;SDS011;58696;52.134;5.500;2024-02-16T05:00:26;3.10;;;2.20;;
71042;SDS011;58696;52.134;5.500;2024-02-16T05:02:53;4.30;;;2.47;;
71042;SDS011;58696;52.134;5.500;2024-02-16T05:05:20;4.63;;;1.83;;
71042;SDS011;58696;52.134;5.500;2024-02-16T05:07:53;5.07;;;2.45;;
71042;SDS011;58696;52.134;5.500;2024-02-16T05:10:25;3.20;;;2.13;;
71042;SDS011;58696;52.134;5.500;2024-02-16T05:12:52;4.93;;;2.42;;
71042;SDS011;58696;52.134;5.500;2024-02-16T05:15:18;4.20;;;1.92;;
71042;SDS011;58696;52.134;5.500;2024-02-16T05:17:48;4.70;;;2.50;;
71042;SDS011;58696;52.134;5.500;2024-02-16T05:20:16;2.35;;;1.83;;
71042;SDS011;58696;52.134;5.500;2024-02-16T05:22:45;13.32;;;2.38;;
71042;SDS011;58696;52.134;5.500;2024-02-16T05:25:13;5.57;;;2.38;;
71042;SDS011;58696;52.134;5.500;2024-02-16T05:27:42;3.22;;;2.08;;
71042;SDS011;58696;52.134;5.500;2024-02-16T05:30:09;4.38;;;2.25;;
71042;SDS011;58696;52.134;5.500;2024-02-16T05:32:42;9.57;;;2.03;;
71042;SDS011;58696;52.134;5.500;2024-02-16T05:35:09;2.95;;;2.08;;
71042;SDS011;58696;52.134;5.500;2024-02-16T05:37:45;3.45;;;1.80;;
71042;SDS011;58696;52.134;5.500;2024-02-16T05:40:15;3.95;;;2.28;;
71042;SDS011;58696;52.134;5.500;2024-02-16T05:42:48;3.40;;;2.00;;
71042;SDS011;58696;52.134;5.500;2024-02-16T05:45:19;3.65;;;2.30;;
71042;SDS011;58696;52.134;5.500;2024-02-16T05:47:52;2.70;;;1.90;;
71042;SDS011;58696;52.134;5.500;2024-02-16T05:50:19;4.78;;;2.58;;
71042;SDS011;58696;52.134;5.500;2024-02-16T05:52:48;5.05;;;2.65;;
71042;SDS011;58696;52.134;5.500;2024-02-16T05:55:20;4.45;;;2.17;;
71042;SDS011;58696;52.134;5.500;2024-02-16T05:57:47;4.38;;;2.45;;
71042;SDS011;58696;52.134;5.500;2024-02-16T06:00:16;4.85;;;2.40;;
71042;SDS011;58696;52.134;5.500;2024-02-16T06:02:47;4.47;;;2.50;;
71042;SDS011;58696;52.134;5.500;2024-02-16T06:05:19;2.20;;;2.00;;
71042;SDS011;58696;52.134;5.500;2024-02-16T06:07:51;2.97;;;1.98;;
71042;SDS011;58696;52.134;5.500;2024-02-16T06:10:17;3.00;;;2.10;;
71042;SDS011;58696;52.134;5.500;2024-02-16T06:12:46;4.38;;;2.30;;
71042;SDS011;58696;52.134;5.500;2024-02-16T06:15:17;2.40;;;1.70;;
71042;SDS011;58696;52.134;5.500;2024-02-16T06:17:44;4.63;;;2.22;;
71042;SDS011;58696;52.134;5.500;2024-02-16T06:20:16;2.55;;;1.90;;
71042;SDS011;58696;52.134;5.500;2024-02-16T06:22:46;3.70;;;2.38;;
71042;SDS011;58696;52.134;5.500;2024-02-16T06:25:13;3.42;;;2.08;;
71042;SDS011;58696;52.134;5.500;2024-02-16T06:27:41;3.78;;;2.38;;
71042;SDS011;58696;52.134;5.500;2024-02-16T06:30:12;2.65;;;2.17;;
71042;SDS011;58696;52.134;5.500;2024-02-16T06:32:42;3.30;;;2.08;;
71042;SDS011;58696;52.134;5.500;2024-02-16T06:35:09;3.67;;;2.17;;
71042;SDS011;58696;52.134;5.500;2024-02-16T06:37:36;2.08;;;1.88;;
71042;SDS011;58696;52.134;5.500;2024-02-16T06:40:04;4.32;;;1.90;;
71042;SDS011;58696;52.134;5.500;2024-02-16T06:42:37;3.97;;;2.28;;
71042;SDS011;58696;52.134;5.500;2024-02-16T06:45:07;3.88;;;2.20;;
71042;SDS011;58696;52.134;5.500;2024-02-16T06:47:37;4.50;;;2.10;;
71042;SDS011;58696;52.134;5.500;2024-02-16T06:50:09;4.28;;;2.25;;
71042;SDS011;58696;52.134;5.500;2024-02-16T06:52:36;4.07;;;2.25;;
71042;SDS011;58696;52.134;5.500;2024-02-16T06:55:03;4.20;;;2.00;;
71042;SDS011;58696;52.134;5.500;2024-02-16T06:57:29;2.55;;;2.22;;
71042;SDS011;58696;52.134;5.500;2024-02-16T06:59:57;6.82;;;3.05;;
71042;SDS011;58696;52.134;5.500;2024-02-16T07:02:24;6.50;;;2.40;;
71042;SDS011;58696;52.134;5.500;2024-02-16T07:04:54;4.17;;;2.10;;
71042;SDS011;58696;52.134;5.500;2024-02-16T07:07:23;3.38;;;2.30;;
71042;SDS011;58696;52.134;5.500;2024-02-16T07:09:54;4.47;;;2.30;;
71042;SDS011;58696;52.134;5.500;2024-02-16T07:12:21;6.15;;;2.35;;
71042;SDS011;58696;52.134;5.500;2024-02-16T07:14:47;6.03;;;2.63;;
71042;SDS011;58696;52.134;5.500;2024-02-16T07:17:16;2.80;;;2.22;;
71042;SDS011;58696;52.134;5.500;2024-02-16T07:19:43;4.88;;;2.60;;
71042;SDS011;58696;52.134;5.500;2024-02-16T07:22:12;5.78;;;2.67;;
71042;SDS011;58696;52.134;5.500;2024-02-16T07:24:39;7.70;;;2.77;;
71042;SDS011;58696;52.134;5.500;2024-02-16T07:27:08;3.78;;;2.50;;
71042;SDS011;58696;52.134;5.500;2024-02-16T07:29:39;5.25;;;2.50;;
71042;SDS011;58696;52.134;5.500;2024-02-16T07:32:05;5.40;;;2.80;;
71042;SDS011;58696;52.134;5.500;2024-02-16T07:34:34;5.78;;;2.33;;
71042;SDS011;58696;52.134;5.500;2024-02-16T07:37:01;4.90;;;2.70;;
71042;SDS011;58696;52.134;5.500;2024-02-16T07:39:30;3.97;;;2.30;;
71042;SDS011;58696;52.134;5.500;2024-02-16T07:41:57;5.50;;;2.40;;
71042;SDS011;58696;52.134;5.500;2024-02-16T07:44:27;8.70;;;2.40;;
71042;SDS011;58696;52.134;5.500;2024-02-16T07:46:58;5.78;;;2.75;;
71042;SDS011;58696;52.134;5.500;2024-02-16T07:49:27;3.72;;;2.58;;
71042;SDS011;58696;52.134;5.500;2024-02-16T07:51:58;7.85;;;2.50;;
71042;SDS011;58696;52.134;5.500;2024-02-16T07:54:27;3.50;;;2.13;;
71042;SDS011;58696;52.134;5.500;2024-02-16T07:56:56;5.20;;;2.55;;
71042;SDS011;58696;52.134;5.500;2024-02-16T07:59:27;5.65;;;2.55;;
71042;SDS011;58696;52.134;5.500;2024-02-16T08:01:54;2.85;;;2.28;;
71042;SDS011;58696;52.134;5.500;2024-02-16T08:04:22;3.63;;;2.70;;
71042;SDS011;58696;52.134;5.500;2024-02-16T08:06:49;4.47;;;2.63;;
71042;SDS011;58696;52.134;5.500;2024-02-16T08:09:16;4.15;;;2.63;;
71042;SDS011;58696;52.134;5.500;2024-02-16T08:11:45;3.45;;;2.55;;
71042;SDS011;58696;52.134;5.500;2024-02-16T08:14:16;6.30;;;2.35;;
71042;SDS011;58696;52.134;5.500;2024-02-16T08:16:43;5.60;;;2.50;;
71042;SDS011;58696;52.134;5.500;2024-02-16T08:19:14;7.80;;;2.80;;
71042;SDS011;58696;52.134;5.500;2024-02-16T08:21:41;2.83;;;2.22;;
71042;SDS011;58696;52.134;5.500;2024-02-16T08:24:10;4.43;;;2.85;;
71042;SDS011;58696;52.134;5.500;2024-02-16T08:26:42;7.93;;;3.20;;
71042;SDS011;58696;52.134;5.500;2024-02-16T08:29:11;6.03;;;2.90;;
71042;SDS011;58696;52.134;5.500;2024-02-16T08:31:38;6.25;;;2.83;;
71042;SDS011;58696;52.134;5.500;2024-02-16T08:34:05;4.35;;;2.70;;
71042;SDS011;58696;52.134;5.500;2024-02-16T08:36:33;8.40;;;3.10;;
71042;SDS011;58696;52.134;5.500;2024-02-16T08:39:00;3.50;;;2.75;;
71042;SDS011;58696;52.134;5.500;2024-02-16T08:41:27;6.82;;;3.47;;
71042;SDS011;58696;52.134;5.500;2024-02-16T08:43:54;9.00;;;2.67;;
71042;SDS011;58696;52.134;5.500;2024-02-16T08:46:22;5.95;;;2.95;;
71042;SDS011;58696;52.134;5.500;2024-02-16T08:48:54;3.72;;;2.70;;
71042;SDS011;58696;52.134;5.500;2024-02-16T08:51:20;4.05;;;3.00;;
71042;SDS011;58696;52.134;5.500;2024-02-16T08:53:49;5.97;;;3.00;;
71042;SDS011;58696;52.134;5.500;2024-02-16T08:56:16;6.15;;;2.95;;
71042;SDS011;58696;52.134;5.500;2024-02-16T08:58:48;4.30;;;2.63;;
71042;SDS011;58696;52.134;5.500;2024-02-16T09:01:14;5.80;;;3.00;;
71042;SDS011;58696;52.134;5.500;2024-02-16T09:03:43;4.18;;;2.83;;
71042;SDS011;58696;52.134;5.500;2024-02-16T09:06:15;4.53;;;2.90;;
71042;SDS011;58696;52.134;5.500;2024-02-16T09:08:45;4.30;;;2.53;;
71042;SDS011;58696;52.134;5.500;2024-02-16T09:11:11;5.85;;;2.72;;
71042;SDS011;58696;52.134;5.500;2024-02-16T09:13:39;6.15;;;2.85;;
71042;SDS011;58696;52.134;5.500;2024-02-16T09:16:08;13.30;;;3.70;;
71042;SDS011;58696;52.134;5.500;2024-02-16T09:18:34;3.95;;;2.65;;
71042;SDS011;58696;52.134;5.500;2024-02-16T09:21:04;9.52;;;3.63;;
71042;SDS011;58696;52.134;5.500;2024-02-16T09:23:34;7.03;;;3.38;;
71042;SDS011;58696;52.134;5.500;2024-02-16T09:26:04;7.32;;;3.10;;
71042;SDS011;58696;52.134;5.500;2024-02-16T09:28:31;5.43;;;3.13;;
71042;SDS011;58696;52.134;5.500;2024-02-16T09:31:00;8.60;;;3.53;;
71042;SDS011;58696;52.134;5.500;2024-02-16T09:33:28;5.13;;;3.10;;
71042;SDS011;58696;52.134;5.500;2024-02-16T09:35:55;8.00;;;3.00;;
71042;SDS011;58696;52.134;5.500;2024-02-16T09:38:21;9.75;;;3.30;;
71042;SDS011;58696;52.134;5.500;2024-02-16T09:40:52;7.38;;;3.30;;
71042;SDS011;58696;52.134;5.500;2024-02-16T09:43:25;4.05;;;3.15;;
71042;SDS011;58696;52.134;5.500;2024-02-16T09:45:57;5.90;;;3.28;;
71042;SDS011;58696;52.134;5.500;2024-02-16T09:48:26;11.77;;;3.75;;
71042;SDS011;58696;52.134;5.500;2024-02-16T09:50:57;6.50;;;3.80;;
71042;SDS011;58696;52.134;5.500;2024-02-16T09:53:27;8.43;;;3.40;;
71042;SDS011;58696;52.134;5.500;2024-02-16T09:55:55;7.07;;;2.83;;
71042;SDS011;58696;52.134;5.500;2024-02-16T09:58:22;6.38;;;3.25;;
71042;SDS011;58696;52.134;5.500;2024-02-16T10:00:55;3.88;;;2.65;;
71042;SDS011;58696;52.134;5.500;2024-02-16T10:06:03;8.02;;;3.40;;
71042;SDS011;58696;52.134;5.500;2024-02-16T10:08:35;6.50;;;3.47;;
71042;SDS011;58696;52.134;5.500;2024-02-16T10:11:14;6.28;;;3.47;;
71042;SDS011;58696;52.134;5.500;2024-02-16T10:13:41;7.80;;;4.00;;
71042;SDS011;58696;52.134;5.500;2024-02-16T10:16:08;9.20;;;3.42;;
71042;SDS011;58696;52.134;5.500;2024-02-16T10:18:38;5.07;;;3.22;;
71042;SDS011;58696;52.134;5.500;2024-02-16T10:21:08;11.80;;;4.03;;
71042;SDS011;58696;52.134;5.500;2024-02-16T10:23:37;6.95;;;3.35;;
71042;SDS011;58696;52.134;5.500;2024-02-16T10:26:06;6.85;;;3.65;;
71042;SDS011;58696;52.134;5.500;2024-02-16T10:28:33;8.65;;;3.83;;
71042;SDS011;58696;52.134;5.500;2024-02-16T10:30:59;7.10;;;3.90;;
71042;SDS011;58696;52.134;5.500;2024-02-16T10:33:31;8.93;;;4.13;;
71042;SDS011;58696;52.134;5.500;2024-02-16T10:35:58;9.17;;;3.60;;
71042;SDS011;58696;52.134;5.500;2024-02-16T10:38:31;5.60;;;3.65;;
71042;SDS011;58696;52.134;5.500;2024-02-16T10:40:58;5.28;;;3.72;;
71042;SDS011;58696;52.134;5.500;2024-02-16T10:43:27;6.78;;;3.70;;
71042;SDS011;58696;52.134;5.500;2024-02-16T10:45:57;7.65;;;3.72;;
71042;SDS011;58696;52.134;5.500;2024-02-16T10:48:27;5.82;;;3.75;;
71042;SDS011;58696;52.134;5.500;2024-02-16T10:50:56;5.45;;;3.90;;
71042;SDS011;58696;52.134;5.500;2024-02-16T10:53:25;5.30;;;3.90;;
71042;SDS011;58696;52.134;5.500;2024-02-16T10:55:58;5.78;;;4.05;;
71042;SDS011;58696;52.134;5.500;2024-02-16T10:58:27;5.55;;;3.78;;
71042;SDS011;58696;52.134;5.500;2024-02-16T11:00:56;7.13;;;3.72;;
71042;SDS011;58696;52.134;5.500;2024-02-16T11:03:26;7.20;;;4.30;;
71042;SDS011;58696;52.134;5.500;2024-02-16T11:05:54;7.97;;;4.15;;
71042;SDS011;58696;52.134;5.500;2024-02-16T11:08:24;5.70;;;4.43;;
71042;SDS011;58696;52.134;5.500;2024-02-16T11:10:59;5.88;;;3.92;;
71042;SDS011;58696;52.134;5.500;2024-02-16T11:13:33;8.05;;;4.25;;
71042;SDS011;58696;52.134;5.500;2024-02-16T11:16:06;5.95;;;4.85;;
71042;SDS011;58696;52.134;5.500;2024-02-16T11:18:37;7.15;;;4.65;;
71042;SDS011;58696;52.134;5.500;2024-02-16T11:21:14;7.85;;;5.13;;
71042;SDS011;58696;52.134;5.500;2024-02-16T11:23:44;8.90;;;4.90;;
71042;SDS011;58696;52.134;5.500;2024-02-16T11:26:11;6.18;;;4.97;;
71042;SDS011;58696;52.134;5.500;2024-02-16T11:28:42;11.13;;;5.30;;
71042;SDS011;58696;52.134;5.500;2024-02-16T11:31:09;8.50;;;4.80;;
71042;SDS011;58696;52.134;5.500;2024-02-16T11:33:36;7.28;;;5.10;;
71042;SDS011;58696;52.134;5.500;2024-02-16T11:36:09;6.53;;;4.55;;
71042;SDS011;58696;52.134;5.500;2024-02-16T11:38:36;6.00;;;4.70;;
71042;SDS011;58696;52.134;5.500;2024-02-16T11:41:04;14.48;;;4.78;;
71042;SDS011;58696;52.134;5.500;2024-02-16T11:43:38;5.45;;;4.30;;
71042;SDS011;58696;52.134;5.500;2024-02-16T11:46:13;9.35;;;4.90;;
71042;SDS011;58696;52.134;5.500;2024-02-16T11:48:44;10.75;;;5.30;;
71042;SDS011;58696;52.134;5.500;2024-02-16T11:51:15;7.93;;;5.18;;
71042;SDS011;58696;52.134;5.500;2024-02-16T11:53:44;6.50;;;4.60;;
71042;SDS011;58696;52.134;5.500;2024-02-16T11:56:21;7.20;;;5.30;;
71042;SDS011;58696;52.134;5.500;2024-02-16T11:58:53;5.82;;;4.50;;
71042;SDS011;58696;52.134;5.500;2024-02-16T12:01:22;6.10;;;4.28;;
71042;SDS011;58696;52.134;5.500;2024-02-16T12:03:49;8.27;;;4.68;;
71042;SDS011;58696;52.134;5.500;2024-02-16T12:06:21;6.20;;;5.05;;
71042;SDS011;58696;52.134;5.500;2024-02-16T12:08:50;12.35;;;5.15;;
71042;SDS011;58696;52.134;5.500;2024-02-16T12:11:19;7.65;;;5.10;;
71042;SDS011;58696;52.134;5.500;2024-02-16T12:13:49;7.03;;;4.60;;
71042;SDS011;58696;52.134;5.500;2024-02-16T12:16:18;8.23;;;4.97;;
71042;SDS011;58696;52.134;5.500;2024-02-16T12:18:47;7.32;;;5.13;;
71042;SDS011;58696;52.134;5.500;2024-02-16T12:21:17;9.43;;;5.68;;
71042;SDS011;58696;52.134;5.500;2024-02-16T12:23:46;7.85;;;5.63;;
71042;SDS011;58696;52.134;5.500;2024-02-16T12:26:15;13.80;;;5.97;;
71042;SDS011;58696;52.134;5.500;2024-02-16T12:28:47;9.13;;;5.75;;
71042;SDS011;58696;52.134;5.500;2024-02-16T12:31:18;8.40;;;5.43;;
71042;SDS011;58696;52.134;5.500;2024-02-16T12:33:45;10.77;;;4.68;;
71042;SDS011;58696;52.134;5.500;2024-02-16T12:36:12;8.32;;;4.82;;
71042;SDS011;58696;52.134;5.500;2024-02-16T12:38:41;6.55;;;4.47;;
71042;SDS011;58696;52.134;5.500;2024-02-16T12:41:08;5.20;;;3.40;;
71042;SDS011;58696;52.134;5.500;2024-02-16T12:43:37;4.90;;;3.35;;
71042;SDS011;58696;52.134;5.500;2024-02-16T12:46:03;5.80;;;3.90;;
71042;SDS011;58696;52.134;5.500;2024-02-16T12:48:32;4.68;;;3.03;;
71042;SDS011;58696;52.134;5.500;2024-02-16T12:50:59;4.82;;;2.58;;
71042;SDS011;58696;52.134;5.500;2024-02-16T12:53:30;3.88;;;2.70;;
71042;SDS011;58696;52.134;5.500;2024-02-16T12:56:10;3.75;;;2.63;;
71042;SDS011;58696;52.134;5.500;2024-02-16T12:58:37;3.90;;;2.55;;
71042;SDS011;58696;52.134;5.500;2024-02-16T13:01:03;2.13;;;1.92;;
71042;SDS011;58696;52.134;5.500;2024-02-16T13:03:45;2.00;;;1.77;;
71042;SDS011;58696;52.134;5.500;2024-02-16T13:06:11;2.20;;;1.90;;
71042;SDS011;58696;52.134;5.500;2024-02-16T13:08:41;2.00;;;1.60;;
71042;SDS011;58696;52.134;5.500;2024-02-16T13:11:07;1.90;;;1.80;;
71042;SDS011;58696;52.134;5.500;2024-02-16T13:13:34;2.88;;;1.60;;
71042;SDS011;58696;52.134;5.500;2024-02-16T13:16:03;1.83;;;1.70;;
71042;SDS011;58696;52.134;5.500;2024-02-16T13:18:30;2.20;;;1.77;;
71042;SDS011;58696;52.134;5.500;2024-02-16T13:20:57;2.95;;;1.70;;
71042;SDS011;58696;52.134;5.500;2024-02-16T13:23:26;2.63;;;1.80;;
71042;SDS011;58696;52.134;5.500;2024-02-16T13:25:57;3.13;;;1.85;;
71042;SDS011;58696;52.134;5.500;2024-02-16T13:28:26;2.75;;;1.63;;
71042;SDS011;58696;52.134;5.500;2024-02-16T13:30:55;4.18;;;1.52;;
71042;SDS011;58696;52.134;5.500;2024-02-16T13:33:22;3.08;;;1.70;;
71042;SDS011;58696;52.134;5.500;2024-02-16T13:35:51;2.70;;;2.03;;
71042;SDS011;58696;52.134;5.500;2024-02-16T13:38:21;1.95;;;1.80;;
71042;SDS011;58696;52.134;5.500;2024-02-16T13:40:50;2.28;;;1.77;;
71042;SDS011;58696;52.134;5.500;2024-02-16T13:43:16;3.20;;;1.70;;
71042;SDS011;58696;52.134;5.500;2024-02-16T13:45:48;2.67;;;2.05;;
71042;SDS011;58696;52.134;5.500;2024-02-16T13:48:21;3.63;;;1.63;;
71042;SDS011;58696;52.134;5.500;2024-02-16T13:50:48;1.92;;;1.73;;
71042;SDS011;58696;52.134;5.500;2024-02-16T13:53:18;2.13;;;1.83;;
71042;SDS011;58696;52.134;5.500;2024-02-16T13:55:47;2.53;;;1.70;;
71042;SDS011;58696;52.134;5.500;2024-02-16T13:58:16;2.15;;;1.50;;
71042;SDS011;58696;52.134;5.500;2024-02-16T14:00:46;1.85;;;1.58;;
71042;SDS011;58696;52.134;5.500;2024-02-16T14:03:16;3.63;;;1.60;;
71042;SDS011;58696;52.134;5.500;2024-02-16T14:05:48;3.05;;;1.80;;
71042;SDS011;58696;52.134;5.500;2024-02-16T14:08:15;2.13;;;1.67;;
71042;SDS011;58696;52.134;5.500;2024-02-16T14:10:45;4.25;;;2.53;;
71042;SDS011;58696;52.134;5.500;2024-02-16T14:13:12;2.17;;;1.60;;
71042;SDS011;58696;52.134;5.500;2024-02-16T14:15:39;4.18;;;1.50;;
71042;SDS011;58696;52.134;5.500;2024-02-16T14:18:08;2.70;;;1.40;;
71042;SDS011;58696;52.134;5.500;2024-02-16T14:20:48;1.40;;;1.30;;
71042;SDS011;58696;52.134;5.500;2024-02-16T14:23:15;1.65;;;1.48;;
71042;SDS011;58696;52.134;5.500;2024-02-16T14:25:43;2.55;;;1.30;;
71042;SDS011;58696;52.134;5.500;2024-02-16T14:28:13;4.50;;;1.60;;
71042;SDS011;58696;52.134;5.500;2024-02-16T14:30:40;2.13;;;1.60;;
71042;SDS011;58696;52.134;5.500;2024-02-16T14:33:08;1.95;;;1.80;;
71042;SDS011;58696;52.134;5.500;2024-02-16T14:35:34;4.35;;;1.75;;
71042;SDS011;58696;52.134;5.500;2024-02-16T14:38:06;1.98;;;1.77;;
71042;SDS011;58696;52.134;5.500;2024-02-16T14:40:35;2.22;;;1.90;;
71042;SDS011;58696;52.134;5.500;2024-02-16T14:43:02;3.42;;;2.15;;
71042;SDS011;58696;52.134;5.500;2024-02-16T14:45:31;3.33;;;2.42;;
71042;SDS011;58696;52.134;5.500;2024-02-16T14:48:00;4.15;;;2.17;;
71042;SDS011;58696;52.134;5.500;2024-02-16T14:50:34;2.97;;;1.80;;
71042;SDS011;58696;52.134;5.500;2024-02-16T14:53:01;2.95;;;1.85;;
71042;SDS011;58696;52.134;5.500;2024-02-16T14:55:30;2.13;;;1.90;;
71042;SDS011;58696;52.134;5.500;2024-02-16T14:57:59;4.80;;;1.85;;
71042;SDS011;58696;52.134;5.500;2024-02-16T15:00:26;2.25;;;1.58;;